Ana Sayfa
METAR-TAF:

METAR-TAF

Havaalanları :

Arad, Romanya

Enlem: 46-12N, Boylam: 021-24E, yükseklik: 117 m

Güncel hava durumu gözlemi

Rapor saat 06:00 UTC de 30 dakika önce yapıldı.
Rüzgar güneydan 6 kt, güneydoğu ve güney/güneybatı arasında değişken
Sıcaklık 25°C
Nem 83%
Basınç 1025 hPa
Görüş mesafesi 10 km veya daha fazla
1500 m altında bulut yok ve kümülonimbus yok

METAR: LRAR 260600Z 17006KT 140V200 CAVOK 25/22 Q1025

Saat: 09:30 (06:30 UTC)

Tahmin

Rapor saat 05:00 UTC de 1 saat ve 30 dakika önce yapıldı.
Ayın 26'si saat 06 UTC'den ayın 26'si saat 15 UTC'ye kadar geçerli Tahmin
Rüzgar güney/güneydoğudan 6 kt
Görüş mesafesi 10 km veya daha fazla
1500 m altında bulut yok ve kümülonimbus yok

TAF: LRAR 260500Z 2606/2615 15006KT CAVOK

4.000'den fazla havaalanı için hava durumu gözlemleri ve tahminleri (METAR ve TAF raporları).

Kullanılabilir istasyonlar harita üzerinde sarı ve kırmızı noktalarla gösterilir.

İstasyonun adını görmek için fareyi noktanın üzerinde gezdirin.

Sonrasında hava gözlem ve tahminlerini görmek için tıklayın.

Haritayı değiştirmek için: yaklaştırmak için siyah artı işaretli yeşil düğmeye ve uzaklaştırmak için de eksi işaretli düğmeye hızla tıklayın; bitişik haritalar için yeşil okları kullanın.


METAR-TAF: